createdAt,value
2022-08-23T00:00:07.647Z,2.63
2022-08-23T00:02:42.503Z,2.80
2022-08-23T00:05:13.020Z,2.55
2022-08-23T00:07:43.654Z,2.90
2022-08-23T00:10:13.875Z,2.95
2022-08-23T00:12:43.520Z,3.08
2022-08-23T00:15:15.020Z,2.63
2022-08-23T00:17:43.857Z,2.70
2022-08-23T00:20:15.572Z,2.97
2022-08-23T00:22:43.813Z,2.50
2022-08-23T00:25:13.984Z,2.50
2022-08-23T00:27:43.570Z,2.67
2022-08-23T00:30:13.658Z,2.80
2022-08-23T00:32:42.577Z,2.85
2022-08-23T00:35:12.380Z,2.63
2022-08-23T00:37:51.028Z,2.78
2022-08-23T00:40:37.379Z,2.92
2022-08-23T00:43:27.116Z,2.97
2022-08-23T00:46:19.573Z,2.65
2022-08-23T00:48:48.324Z,2.80
2022-08-23T00:51:19.983Z,3.10
2022-08-23T00:53:53.164Z,2.85
2022-08-23T00:56:25.392Z,2.78
2022-08-23T00:58:57.379Z,3.00
2022-08-23T01:01:25.775Z,2.80
2022-08-23T01:03:57.118Z,2.40
2022-08-23T01:06:36.092Z,2.80
2022-08-23T01:09:08.670Z,2.50
2022-08-23T01:11:40.383Z,2.70
2022-08-23T01:14:16.074Z,2.90
2022-08-23T01:16:50.251Z,2.90
2022-08-23T01:19:25.742Z,2.95
2022-08-23T01:22:06.111Z,2.90
2022-08-23T01:24:57.764Z,2.70
2022-08-23T01:27:25.486Z,2.63
2022-08-23T01:29:53.605Z,2.55
2022-08-23T01:32:21.912Z,2.80
2022-08-23T01:34:51.588Z,3.20
2022-08-23T01:37:21.314Z,2.90
2022-08-23T01:39:50.836Z,2.58
2022-08-23T01:42:18.895Z,2.90
2022-08-23T01:44:46.915Z,2.95
2022-08-23T01:47:14.923Z,2.88
2022-08-23T01:49:42.934Z,3.13
2022-08-23T01:52:10.963Z,2.75
2022-08-23T01:54:40.951Z,2.80
2022-08-23T01:57:11.765Z,3.10
2022-08-23T01:59:40.324Z,3.35
2022-08-23T02:02:08.356Z,2.88
2022-08-23T02:04:36.410Z,3.20
2022-08-23T02:07:04.440Z,3.20
2022-08-23T02:09:32.903Z,3.00
2022-08-23T02:12:01.059Z,2.88
2022-08-23T02:14:30.418Z,3.15
2022-08-23T02:17:04.508Z,2.85
2022-08-23T02:19:33.297Z,3.05
2022-08-23T02:22:01.362Z,3.10
2022-08-23T02:24:31.512Z,3.20
2022-08-23T02:27:02.612Z,3.47
2022-08-23T02:29:32.639Z,3.30
2022-08-23T02:32:01.193Z,3.42
2022-08-23T02:37:16.461Z,2.83
2022-08-23T02:39:45.133Z,3.25
2022-08-23T02:42:15.090Z,3.28
2022-08-23T02:44:44.766Z,3.28
2022-08-23T02:47:12.847Z,3.58
2022-08-23T02:49:41.413Z,3.40
2022-08-23T02:52:09.685Z,3.08
2022-08-23T02:54:37.855Z,3.50
2022-08-23T02:57:06.662Z,3.50
2022-08-23T02:59:35.436Z,3.33
2022-08-23T03:02:04.949Z,3.35
2022-08-23T03:04:33.126Z,3.63
2022-08-23T03:07:01.220Z,3.53
2022-08-23T03:09:29.398Z,3.65
2022-08-23T03:11:57.542Z,4.00
2022-08-23T03:14:27.502Z,3.60
2022-08-23T03:16:58.183Z,3.47
2022-08-23T03:19:27.974Z,3.33
2022-08-23T03:21:56.061Z,3.35
2022-08-23T03:24:24.484Z,3.50
2022-08-23T03:26:52.656Z,3.38
2022-08-23T03:29:20.793Z,3.83
2022-08-23T03:31:48.847Z,3.60
2022-08-23T03:34:16.866Z,3.60
2022-08-23T03:36:46.249Z,3.95
2022-08-23T03:39:14.541Z,3.30
2022-08-23T03:41:42.544Z,3.72
2022-08-23T03:44:10.573Z,3.53
2022-08-23T03:46:39.119Z,3.85
2022-08-23T03:49:07.325Z,3.83
2022-08-23T03:51:36.129Z,3.78
2022-08-23T03:54:05.914Z,3.85
2022-08-23T03:56:35.903Z,4.13
2022-08-23T03:59:08.095Z,4.00
2022-08-23T04:01:36.589Z,3.50
2022-08-23T04:04:05.403Z,3.63
2022-08-23T04:06:33.872Z,3.67
2022-08-23T04:09:02.054Z,3.70
2022-08-23T04:11:31.600Z,3.40
2022-08-23T04:13:59.657Z,3.40
2022-08-23T04:16:28.982Z,3.50
2022-08-23T04:18:57.343Z,4.05
2022-08-23T04:21:26.219Z,3.42
2022-08-23T04:23:54.403Z,4.00
2022-08-23T04:26:24.299Z,4.15
2022-08-23T04:28:56.903Z,3.72
2022-08-23T04:31:26.199Z,4.18
2022-08-23T04:33:54.392Z,4.10
2022-08-23T04:36:23.687Z,3.88
2022-08-23T04:38:51.814Z,4.20
2022-08-23T04:41:37.928Z,3.90
2022-08-23T04:44:07.282Z,3.80
2022-08-23T04:46:35.602Z,3.70
2022-08-23T04:49:04.123Z,4.00
2022-08-23T04:51:32.265Z,3.78
2022-08-23T04:54:00.230Z,3.50
2022-08-23T04:56:28.463Z,4.10
2022-08-23T04:58:56.704Z,3.47
2022-08-23T05:01:26.557Z,3.72
2022-08-23T05:03:55.331Z,4.15
2022-08-23T05:06:24.378Z,4.00
2022-08-23T05:08:52.508Z,3.78
2022-08-23T05:11:20.631Z,3.78
2022-08-23T05:13:49.203Z,3.95
2022-08-23T05:16:18.083Z,3.72
2022-08-23T05:18:47.714Z,3.78
2022-08-23T05:21:17.066Z,3.58
2022-08-23T05:23:45.578Z,3.40
2022-08-23T05:26:19.474Z,3.75
2022-08-23T05:28:49.083Z,3.67
2022-08-23T05:31:19.434Z,4.18
2022-08-23T05:33:49.505Z,3.78
2022-08-23T05:36:18.920Z,4.20
2022-08-23T05:38:47.996Z,4.05
2022-08-23T05:41:16.953Z,4.28
2022-08-23T05:43:45.191Z,3.95
2022-08-23T05:46:16.063Z,3.85
2022-08-23T05:48:51.905Z,3.60
2022-08-23T05:51:23.160Z,3.80
2022-08-23T05:53:53.146Z,3.53
2022-08-23T05:56:24.172Z,3.08
2022-08-23T05:58:59.165Z,3.25
2022-08-23T06:01:28.897Z,3.28
2022-08-23T06:03:59.891Z,3.50
2022-08-23T06:06:37.397Z,3.80
2022-08-23T06:09:08.406Z,4.13
2022-08-23T06:11:36.579Z,4.13
2022-08-23T06:14:07.012Z,3.70
2022-08-23T06:16:37.677Z,3.58
2022-08-23T06:19:08.375Z,3.40
2022-08-23T06:21:37.271Z,3.42
2022-08-23T06:24:07.099Z,3.63
2022-08-23T06:26:38.261Z,3.90
2022-08-23T06:29:08.974Z,3.75
2022-08-23T06:31:47.698Z,3.92
2022-08-23T06:34:21.684Z,3.75
2022-08-23T06:36:52.462Z,3.00
2022-08-23T06:39:22.411Z,3.50
2022-08-23T06:41:52.630Z,3.47
2022-08-23T06:44:21.402Z,3.20
2022-08-23T06:46:49.597Z,3.45
2022-08-23T06:49:19.027Z,3.30
2022-08-23T06:51:50.345Z,3.33
2022-08-23T06:54:22.939Z,3.10
2022-08-23T06:56:55.097Z,3.40
2022-08-23T06:59:23.591Z,3.50
2022-08-23T07:01:55.140Z,3.22
2022-08-23T07:04:26.519Z,3.35
2022-08-23T07:06:55.344Z,3.08
2022-08-23T07:09:23.944Z,3.33
2022-08-23T07:11:52.438Z,3.20
2022-08-23T07:14:21.825Z,2.92
2022-08-23T07:16:52.117Z,3.30
2022-08-23T07:19:22.451Z,3.30
2022-08-23T07:21:59.394Z,3.17
2022-08-23T07:24:32.894Z,3.40
2022-08-23T07:27:06.458Z,3.33
2022-08-23T07:29:35.913Z,3.13
2022-08-23T07:32:04.602Z,3.20
2022-08-23T07:34:33.143Z,3.30
2022-08-23T07:37:02.647Z,2.78
2022-08-23T07:39:31.736Z,3.20
2022-08-23T07:42:01.020Z,3.17
2022-08-23T07:44:30.040Z,3.25
2022-08-23T07:46:59.044Z,3.30
2022-08-23T07:49:29.253Z,3.33
2022-08-23T07:51:59.921Z,3.25
2022-08-23T07:54:29.507Z,3.20
2022-08-23T07:56:57.775Z,3.42
2022-08-23T07:59:25.788Z,3.03
2022-08-23T08:01:53.990Z,2.90
2022-08-23T08:04:22.106Z,2.83
2022-08-23T08:07:10.518Z,3.20
2022-08-23T08:09:41.710Z,2.88
2022-08-23T08:12:11.186Z,2.70
2022-08-23T08:14:39.600Z,2.55
2022-08-23T08:17:07.914Z,2.88
2022-08-23T08:19:36.034Z,3.00
2022-08-23T08:22:04.261Z,3.08
2022-08-23T08:24:32.282Z,3.03
2022-08-23T08:27:01.664Z,2.80
2022-08-23T08:29:29.700Z,2.50
2022-08-23T08:31:57.931Z,2.60
2022-08-23T08:34:26.258Z,2.30
2022-08-23T08:36:58.685Z,2.65
2022-08-23T08:39:31.318Z,2.70
2022-08-23T08:42:14.048Z,2.80
2022-08-23T08:44:46.096Z,3.13
2022-08-23T08:47:20.845Z,2.40
2022-08-23T08:49:52.469Z,2.70
2022-08-23T08:52:26.081Z,2.63
2022-08-23T08:55:04.909Z,2.45
2022-08-23T08:57:40.114Z,2.67
2022-08-23T09:00:13.486Z,2.60
2022-08-23T09:02:43.015Z,2.70
2022-08-23T09:05:14.654Z,2.78
2022-08-23T09:07:51.999Z,2.63
2022-08-23T09:10:48.483Z,2.63
2022-08-23T09:13:36.717Z,2.50
2022-08-23T09:16:15.960Z,2.88
2022-08-23T09:18:44.745Z,2.70
2022-08-23T09:21:13.238Z,3.20
2022-08-23T09:23:43.815Z,2.55
2022-08-23T09:26:22.102Z,2.60
2022-08-23T09:28:54.034Z,2.88
2022-08-23T09:31:38.297Z,2.97
2022-08-23T09:34:07.439Z,2.30
2022-08-23T09:36:38.334Z,2.40
2022-08-23T09:39:08.421Z,2.80
2022-08-23T09:41:39.697Z,2.92
2022-08-23T09:44:16.157Z,2.40
2022-08-23T09:46:44.416Z,2.80
2022-08-23T09:49:26.089Z,2.60
2022-08-23T09:51:56.619Z,2.70
2022-08-23T09:54:30.206Z,3.05
2022-08-23T09:57:01.032Z,2.67
2022-08-23T09:59:40.275Z,2.90
2022-08-23T10:02:16.324Z,2.75
2022-08-23T10:04:47.302Z,2.83
2022-08-23T10:07:38.576Z,2.53
2022-08-23T10:10:23.290Z,2.65
2022-08-23T10:12:52.256Z,2.80
2022-08-23T10:15:24.242Z,3.00
2022-08-23T10:18:02.936Z,2.70
2022-08-23T10:20:38.241Z,2.80
2022-08-23T10:23:17.228Z,2.83
2022-08-23T10:25:53.935Z,2.85
2022-08-23T10:28:50.664Z,2.30
2022-08-23T10:31:43.823Z,2.53
2022-08-23T10:34:25.668Z,2.65
2022-08-23T10:37:14.350Z,2.70
2022-08-23T10:39:50.017Z,2.50
2022-08-23T10:42:27.973Z,2.70
2022-08-23T10:45:02.227Z,3.00
2022-08-23T10:47:37.401Z,3.00
2022-08-23T10:50:09.879Z,2.85
2022-08-23T10:52:54.994Z,2.80
2022-08-23T10:55:36.865Z,2.70
2022-08-23T10:58:09.410Z,2.58
2022-08-23T11:00:38.527Z,3.08
2022-08-23T11:03:19.130Z,2.83
2022-08-23T11:06:40.798Z,2.72
2022-08-23T11:09:29.040Z,2.83
2022-08-23T11:12:12.687Z,3.00
2022-08-23T11:14:42.876Z,2.72
2022-08-23T11:17:14.328Z,2.63
2022-08-23T11:19:53.632Z,3.17
2022-08-23T11:22:24.486Z,2.92
2022-08-23T11:25:04.188Z,2.92
2022-08-23T11:27:35.672Z,2.70
2022-08-23T11:30:41.421Z,2.65
2022-08-23T11:33:17.535Z,3.17
2022-08-23T11:35:50.999Z,2.95
2022-08-23T11:38:58.235Z,3.30
2022-08-23T11:41:28.632Z,3.30
2022-08-23T11:44:32.237Z,3.67
2022-08-23T11:47:03.491Z,4.07
2022-08-23T11:49:52.101Z,3.60
2022-08-23T11:52:32.789Z,3.10
2022-08-23T11:55:24.699Z,3.70
2022-08-23T11:58:17.601Z,3.50
2022-08-23T12:01:10.863Z,3.10
2022-08-23T12:03:55.524Z,3.47
2022-08-23T12:06:51.044Z,3.58
2022-08-23T12:09:54.000Z,3.47
2022-08-23T12:12:39.259Z,3.53
2022-08-23T12:15:11.966Z,3.30
2022-08-23T12:18:09.332Z,3.75
2022-08-23T12:20:38.832Z,3.42
2022-08-23T12:23:16.762Z,3.28
2022-08-23T12:25:46.367Z,3.17
2022-08-23T12:28:44.434Z,3.20
2022-08-23T12:31:30.414Z,3.05
2022-08-23T12:34:23.126Z,3.38
2022-08-23T12:37:05.382Z,3.30
2022-08-23T12:39:40.148Z,3.35
2022-08-23T12:42:15.713Z,3.33
2022-08-23T12:44:45.826Z,3.10
2022-08-23T12:47:17.403Z,3.30
2022-08-23T12:49:57.314Z,3.63
2022-08-23T12:52:27.394Z,2.80
2022-08-23T12:54:58.049Z,3.10
2022-08-23T12:57:37.126Z,3.05
2022-08-23T13:00:18.522Z,3.60
2022-08-23T13:02:54.951Z,3.10
2022-08-23T13:05:33.371Z,3.00
2022-08-23T13:08:02.808Z,3.20
2022-08-23T13:10:31.494Z,3.10
2022-08-23T13:13:01.543Z,3.20
2022-08-23T13:15:45.407Z,3.10
2022-08-23T13:18:31.715Z,3.03
2022-08-23T13:21:27.575Z,2.95
2022-08-23T13:23:58.271Z,3.25
2022-08-23T13:26:39.434Z,3.00
2022-08-23T13:29:12.931Z,3.17
2022-08-23T13:32:04.214Z,3.00
2022-08-23T13:34:36.158Z,3.47
2022-08-23T13:37:18.361Z,2.90
2022-08-23T13:39:49.861Z,2.90
2022-08-23T13:42:31.894Z,3.17
2022-08-23T13:45:09.029Z,3.20
2022-08-23T13:47:37.930Z,3.00
2022-08-23T13:50:11.544Z,3.20
2022-08-23T13:53:03.058Z,2.85
2022-08-23T13:55:29.475Z,3.10
2022-08-23T13:57:58.920Z,3.08
2022-08-23T14:00:28.502Z,3.05
2022-08-23T14:02:56.568Z,3.10
2022-08-23T14:05:25.003Z,2.95
2022-08-23T14:07:53.780Z,2.90
2022-08-23T14:10:23.527Z,3.17
2022-08-23T14:12:54.507Z,3.10
2022-08-23T14:15:54.604Z,3.10
2022-08-23T14:18:12.928Z,3.00
2022-08-23T14:20:45.878Z,3.28
2022-08-23T14:23:14.420Z,3.05
2022-08-23T14:25:42.616Z,3.10
2022-08-23T14:28:10.694Z,3.05
2022-08-23T14:30:39.017Z,2.85
2022-08-23T14:33:07.418Z,2.65
2022-08-23T14:35:37.418Z,2.97
2022-08-23T14:38:05.553Z,2.80
2022-08-23T14:40:33.905Z,2.95
2022-08-23T14:43:02.409Z,2.95
2022-08-23T14:45:30.519Z,2.80
2022-08-23T14:47:58.580Z,2.78
2022-08-23T14:50:27.742Z,3.33
2022-08-23T14:52:58.273Z,2.75
2022-08-23T14:55:26.295Z,2.90
2022-08-23T14:57:55.050Z,3.03
2022-08-23T15:00:23.625Z,2.97
2022-08-23T15:02:51.751Z,3.20
2022-08-23T15:05:20.343Z,3.10
2022-08-23T15:07:48.658Z,3.10
2022-08-23T15:13:22.111Z,3.00
2022-08-23T15:15:55.521Z,3.03
2022-08-23T15:18:24.186Z,2.55
2022-08-23T15:20:52.612Z,2.95
2022-08-23T15:23:20.905Z,2.90
2022-08-23T15:25:50.577Z,2.92
2022-08-23T15:28:20.771Z,3.25
2022-08-23T15:30:50.203Z,2.72
2022-08-23T15:33:21.274Z,3.00
2022-08-23T15:35:53.414Z,3.03
2022-08-23T15:38:23.117Z,2.80
2022-08-23T15:40:54.491Z,3.15
2022-08-23T15:43:23.523Z,3.17
2022-08-23T15:45:59.286Z,3.00
2022-08-23T15:48:35.058Z,2.83
2022-08-23T15:51:05.061Z,2.80
2022-08-23T15:53:33.383Z,3.00
2022-08-23T15:56:05.758Z,2.85
2022-08-23T15:58:34.029Z,2.72
2022-08-23T16:01:02.051Z,2.90
2022-08-23T16:03:30.334Z,2.90
2022-08-23T16:05:58.662Z,2.47
2022-08-23T16:08:30.240Z,2.97
2022-08-23T16:10:58.606Z,3.10
2022-08-23T16:13:28.529Z,3.00
2022-08-23T16:15:56.586Z,2.78
2022-08-23T16:18:24.945Z,3.05
2022-08-23T16:20:54.557Z,2.95
2022-08-23T16:23:23.095Z,3.10
2022-08-23T16:25:51.229Z,3.10
2022-08-23T16:28:19.311Z,2.70
2022-08-23T16:30:48.734Z,2.92
2022-08-23T16:33:16.813Z,3.10
2022-08-23T16:35:44.807Z,3.33
2022-08-23T16:38:12.887Z,3.13
2022-08-23T16:40:40.858Z,3.38
2022-08-23T16:43:08.863Z,2.80
2022-08-23T16:45:36.906Z,3.08
2022-08-23T16:48:06.725Z,3.03
2022-08-23T16:50:35.106Z,3.10
2022-08-23T16:53:07.267Z,3.22
2022-08-23T16:55:36.047Z,2.90
2022-08-23T16:58:04.390Z,3.08
2022-08-23T17:00:32.874Z,3.00
2022-08-23T17:03:01.327Z,3.22
2022-08-23T17:05:31.086Z,3.20
2022-08-23T17:07:59.481Z,2.78
2022-08-23T17:10:27.529Z,3.25
2022-08-23T17:12:57.890Z,3.28
2022-08-23T17:15:29.161Z,2.85
2022-08-23T17:17:57.735Z,2.60
2022-08-23T17:20:28.454Z,2.95
2022-08-23T17:22:58.103Z,2.75
2022-08-23T17:25:27.039Z,3.00
2022-08-23T17:27:56.167Z,3.10
2022-08-23T17:30:26.518Z,2.60
2022-08-23T17:32:55.446Z,3.08
2022-08-23T17:35:26.716Z,3.13
2022-08-23T17:37:54.944Z,2.60
2022-08-23T17:40:28.941Z,2.97
2022-08-23T17:42:57.416Z,3.53
2022-08-23T17:45:25.634Z,6.78
2022-08-23T17:47:53.710Z,5.72
2022-08-23T17:50:22.271Z,4.20
2022-08-23T17:52:51.166Z,3.72
2022-08-23T17:55:19.998Z,3.33
2022-08-23T17:57:50.257Z,3.10
2022-08-23T18:00:20.058Z,3.15
2022-08-23T18:02:48.030Z,3.35
2022-08-23T18:05:16.051Z,3.13
2022-08-23T18:07:44.148Z,2.90
2022-08-23T18:10:13.871Z,3.28
2022-08-23T18:12:42.391Z,3.35
2022-08-23T18:15:13.216Z,3.22
2022-08-23T18:17:41.508Z,2.95
2022-08-23T18:20:11.570Z,2.83
2022-08-23T18:22:40.149Z,3.05
2022-08-23T18:25:10.479Z,3.20
2022-08-23T18:27:55.963Z,2.90
2022-08-23T18:30:25.497Z,3.13
2022-08-23T18:32:53.569Z,2.70
2022-08-23T18:35:21.895Z,2.75
2022-08-23T18:37:49.890Z,2.20
2022-08-23T18:40:18.022Z,2.33
2022-08-23T18:42:47.336Z,2.35
2022-08-23T18:45:15.411Z,2.35
2022-08-23T18:47:44.759Z,2.35
2022-08-23T18:50:14.296Z,2.42
2022-08-23T18:52:42.334Z,2.20
2022-08-23T18:55:10.979Z,2.25
2022-08-23T18:57:39.183Z,2.00
2022-08-23T19:00:10.395Z,2.40
2022-08-23T19:02:38.478Z,2.13
2022-08-23T19:05:09.109Z,2.20
2022-08-23T19:07:37.124Z,2.28
2022-08-23T19:10:05.876Z,2.17
2022-08-23T19:12:34.373Z,2.40
2022-08-23T19:15:02.402Z,2.20
2022-08-23T19:17:30.490Z,2.50
2022-08-23T19:19:59.939Z,2.10
2022-08-23T19:22:29.682Z,2.05
2022-08-23T19:24:57.705Z,1.90
2022-08-23T19:27:25.846Z,2.20
2022-08-23T19:29:53.859Z,1.95
2022-08-23T19:32:21.964Z,2.20
2022-08-23T19:34:50.603Z,2.20
2022-08-23T19:37:23.135Z,1.90
2022-08-23T19:39:53.060Z,2.08
2022-08-23T19:42:21.579Z,1.95
2022-08-23T19:44:49.633Z,2.13
2022-08-23T19:47:20.162Z,1.95
2022-08-23T19:49:50.114Z,2.00
2022-08-23T19:52:18.122Z,2.17
2022-08-23T19:54:46.170Z,2.10
2022-08-23T19:57:15.563Z,2.30
2022-08-23T19:59:44.003Z,2.25
2022-08-23T20:02:14.545Z,2.22
2022-08-23T20:04:42.898Z,2.20
2022-08-23T20:07:10.902Z,2.20
2022-08-23T20:09:38.920Z,2.17
2022-08-23T20:12:07.582Z,2.00
2022-08-23T20:14:37.006Z,2.42
2022-08-23T20:17:07.411Z,2.40
2022-08-23T20:19:36.234Z,2.15
2022-08-23T20:22:37.260Z,2.40
2022-08-23T20:25:06.888Z,2.20
2022-08-23T20:27:36.946Z,2.42
2022-08-23T20:30:07.773Z,2.15
2022-08-23T20:32:36.058Z,2.20
2022-08-23T20:35:06.631Z,1.95
2022-08-23T20:37:35.130Z,2.45
2022-08-23T20:40:03.563Z,2.15
2022-08-23T20:42:31.950Z,2.10
2022-08-23T20:45:00.145Z,2.00
2022-08-23T20:47:29.490Z,2.45
2022-08-23T20:49:57.515Z,2.05
2022-08-23T20:52:25.514Z,2.00
2022-08-23T20:54:53.622Z,2.20
2022-08-23T20:57:21.827Z,2.10
2022-08-23T20:59:49.824Z,2.50
2022-08-23T21:02:17.967Z,2.20
2022-08-23T21:04:47.339Z,2.15
2022-08-23T21:07:16.013Z,1.80
2022-08-23T21:09:44.572Z,2.08
2022-08-23T21:12:13.591Z,2.42
2022-08-23T21:14:41.582Z,2.20
2022-08-23T21:17:09.593Z,2.10
2022-08-23T21:19:38.135Z,2.20
2022-08-23T21:22:07.544Z,2.10
2022-08-23T21:24:35.551Z,2.03
2022-08-23T21:27:09.574Z,2.30
2022-08-23T21:29:38.557Z,2.22
2022-08-23T21:32:06.996Z,2.10
2022-08-23T21:34:35.125Z,2.45
2022-08-23T21:37:03.286Z,2.10
2022-08-23T21:39:32.676Z,2.22
2022-08-23T21:42:00.690Z,1.95
2022-08-23T21:44:29.047Z,2.30
2022-08-23T21:46:57.055Z,2.20
2022-08-23T21:49:25.088Z,2.10
2022-08-23T21:51:54.432Z,2.42
2022-08-23T21:54:22.923Z,2.38
2022-08-23T21:56:52.317Z,2.42
2022-08-23T21:59:20.347Z,2.65
2022-08-23T22:01:48.654Z,2.47
2022-08-23T22:04:17.339Z,2.20
2022-08-23T22:06:47.682Z,2.33
2022-08-23T22:09:19.628Z,2.20
2022-08-23T22:11:55.255Z,2.60
2022-08-23T22:14:25.853Z,2.28
2022-08-23T22:17:00.033Z,2.78
2022-08-23T22:19:28.194Z,2.40
2022-08-23T22:21:56.620Z,2.53
2022-08-23T22:24:26.093Z,2.35
2022-08-23T22:26:56.490Z,2.58
2022-08-23T22:29:24.576Z,2.60
2022-08-23T22:31:52.737Z,2.40
2022-08-23T22:34:21.185Z,2.30
2022-08-23T22:36:51.991Z,2.20
2022-08-23T22:39:20.786Z,2.40
2022-08-23T22:41:48.795Z,2.22
2022-08-23T22:44:18.745Z,2.67
2022-08-23T22:46:46.992Z,2.70
2022-08-23T22:49:15.322Z,2.60
2022-08-23T22:51:43.868Z,2.35
2022-08-23T22:54:12.479Z,2.47
2022-08-23T22:56:43.610Z,2.60
2022-08-23T22:59:12.176Z,2.38
2022-08-23T23:01:44.618Z,2.55
2022-08-23T23:04:14.310Z,2.22
2022-08-23T23:06:42.793Z,2.50
2022-08-23T23:09:12.400Z,2.30
2022-08-23T23:11:41.075Z,2.33
2022-08-23T23:14:10.158Z,2.20
2022-08-23T23:16:39.213Z,2.25
2022-08-23T23:19:26.249Z,2.42
2022-08-23T23:21:57.554Z,2.22
2022-08-23T23:24:28.407Z,2.40
2022-08-23T23:26:56.449Z,2.42
2022-08-23T23:29:25.390Z,2.80
2022-08-23T23:31:53.687Z,2.53
2022-08-23T23:34:23.768Z,2.40
2022-08-23T23:36:55.891Z,2.28
2022-08-23T23:39:24.135Z,2.55
2022-08-23T23:41:52.166Z,2.42
2022-08-23T23:44:22.500Z,2.78
2022-08-23T23:46:59.909Z,2.40
2022-08-23T23:49:32.899Z,2.47
2022-08-23T23:52:02.001Z,2.60
2022-08-23T23:54:30.190Z,2.55
2022-08-23T23:56:58.274Z,2.55
2022-08-23T23:59:27.263Z,2.83
